Jiaoxian, China
Current Conditions -  °F | °C
As of 3:00 AM on Saturday 29 Nov 2014 (Local Time) from ZSQD Reporting Station
Broken Clouds Broken Clouds  
Wind Chill:   Ceiling: 2000
Heat Index:   Visibility: 5mi
Dew Point:   Wind: 4mph
Humidity: 76%   Direction: 40°NE
Pressure: 30.18"   Gusts: NA
Location:  36.28°N, 120°E
Report Text: ZSQD 281900Z 04002MPS 8000 BKN020 07/03 Q1022 NOSIG
Loading
Personal Weather Stations






























Interactive Weather Map New forecast layout! Learn more

10-Day Weather Forecast

Advertisements
Track Severe Weather on mobile